Time;durP1;ratioP1;P1;durP2;ratioP2;P2;SDS_P1;SDS_P2;PMS_P1;PMS_P2;Temp;Humidity;BMP_temperature;BMP_pressure;BME280_temperature;BME280_humidity;BME280_pressure;Samples;Min_cycle;Max_cycle;Signal;HPM_P1;HPM_P2
2021/08/18 00:04:47;;;;;;;7.35;3.25;;;;;;;15.81;58.98;98934.38;263244;1092;114876;-64
2021/08/18 00:09:51;;;;;;;6.15;3.50;;;;;;;15.80;58.92;98926.47;263203;1093;114836;-65
2021/08/18 00:14:56;;;;;;;6.03;3.50;;;;;;;15.78;59.18;98926.58;262449;1092;114826;-63
2021/08/18 00:20:00;;;;;;;6.53;3.60;;;;;;;15.76;58.85;98933.93;263201;1093;114728;-63
2021/08/18 00:25:05;;;;;;;6.23;3.33;;;;;;;15.74;59.20;98938.56;263155;1093;115442;-61
2021/08/18 00:30:09;;;;;;;7.83;3.58;;;;;;;15.72;59.23;98935.14;262850;1092;115161;-63
2021/08/18 00:35:13;;;;;;;6.78;3.93;;;;;;;15.70;59.11;98936.28;263307;1093;115187;-69
2021/08/18 00:40:16;;;;;;;8.73;3.67;;;;;;;15.67;59.15;98939.22;263297;1093;114854;-61
2021/08/18 00:45:21;;;;;;;8.35;3.50;;;;;;;15.69;59.24;98927.39;263105;1092;115135;-61
2021/08/18 00:50:27;;;;;;;8.43;3.55;;;;;;;15.75;59.34;98931.36;263264;1092;114979;-64
2021/08/18 00:55:30;;;;;;;10.53;4.10;;;;;;;15.75;59.27;98928.67;263157;1092;114914;-67
2021/08/18 01:00:34;;;;;;;10.83;4.37;;;;;;;15.77;59.20;98921.36;263287;1092;115435;-68
2021/08/18 01:05:38;;;;;;;8.05;4.20;;;;;;;15.81;59.19;98928.16;263270;1092;115276;-69
2021/08/18 01:10:42;;;;;;;7.73;4.10;;;;;;;15.80;59.24;98931.84;263252;1091;115500;-64
2021/08/18 01:15:45;;;;;;;12.83;4.17;;;;;;;15.80;59.07;98935.36;263196;1092;114702;-67
2021/08/18 01:20:49;;;;;;;8.77;4.20;;;;;;;15.81;58.82;98926.32;263291;1092;115564;-65
2021/08/18 01:25:56;;;;;;;9.57;4.23;;;;;;;15.79;58.59;98927.42;263186;1092;115007;-63
2021/08/18 01:30:59;;;;;;;9.18;4.38;;;;;;;15.77;59.23;98932.09;263215;1093;114976;-69
2021/08/18 01:36:03;;;;;;;10.53;4.10;;;;;;;15.76;58.88;98923.20;263129;1092;115166;-63
2021/08/18 01:41:08;;;;;;;12.35;4.43;;;;;;;15.76;59.11;98919.64;263301;1092;115452;-64
2021/08/18 01:46:12;;;;;;;16.73;5.17;;;;;;;15.73;59.09;98926.14;263140;1092;115682;-63
2021/08/18 01:51:16;;;;;;;8.93;4.63;;;;;;;15.74;58.99;98927.83;262813;1093;116044;-58
2021/08/18 01:56:20;;;;;;;12.30;4.38;;;;;;;15.75;58.97;98920.63;263267;1092;115035;-68
2021/08/18 02:01:24;;;;;;;13.27;5.23;;;;;;;15.76;59.30;98911.58;263363;1092;115890;-67
2021/08/18 02:06:31;;;;;;;12.43;5.33;;;;;;;15.76;59.20;98912.46;262934;1091;115160;-64
2021/08/18 02:11:34;;;;;;;15.67;5.23;;;;;;;15.77;59.29;98905.26;263214;1092;115193;-64
2021/08/18 02:16:38;;;;;;;11.40;5.10;;;;;;;15.76;59.08;98912.46;263267;1092;115209;-63
2021/08/18 02:21:42;;;;;;;17.13;5.70;;;;;;;15.72;58.96;98923.56;263188;1092;114937;-66
2021/08/18 02:26:45;;;;;;;12.50;5.50;;;;;;;15.71;59.31;98916.51;263554;1092;115046;-69
2021/08/18 02:31:49;;;;;;;13.97;5.17;;;;;;;15.68;59.30;98906.88;263114;1093;115835;-69
2021/08/18 02:36:52;;;;;;;14.43;5.47;;;;;;;15.66;59.21;98898.13;263206;1092;115577;-63
2021/08/18 02:41:56;;;;;;;10.40;4.70;;;;;;;15.61;59.25;98886.89;263160;1092;115358;-64
2021/08/18 02:47:00;;;;;;;13.07;4.90;;;;;;;15.57;59.41;98898.88;262837;1093;115339;-65
2021/08/18 02:52:04;;;;;;;12.23;5.07;;;;;;;15.53;59.34;98909.02;263247;1093;114980;-64
2021/08/18 02:57:07;;;;;;;13.60;5.13;;;;;;;15.55;59.32;98914.23;263286;1093;115308;-65
2021/08/18 03:02:11;;;;;;;12.10;4.63;;;;;;;15.58;59.52;98927.39;263385;1092;115436;-66
2021/08/18 03:07:15;;;;;;;12.63;5.08;;;;;;;15.62;59.62;98942.23;263182;1092;115134;-68
2021/08/18 03:12:18;;;;;;;10.07;4.87;;;;;;;15.66;59.63;98953.56;263103;1093;115621;-62
2021/08/18 03:17:22;;;;;;;14.77;5.60;;;;;;;15.71;59.49;98948.70;263092;1093;115021;-71
2021/08/18 03:22:26;;;;;;;14.07;5.27;;;;;;;15.75;59.74;98952.83;263194;1093;115572;-68
2021/08/18 03:27:29;;;;;;;17.57;4.93;;;;;;;15.73;59.31;98944.08;263311;1092;115176;-64
2021/08/18 03:32:35;;;;;;;12.03;4.77;;;;;;;15.71;59.78;98944.19;263264;1093;115091;-64
2021/08/18 03:37:39;;;;;;;10.75;4.70;;;;;;;15.69;59.52;98932.75;263162;1093;115033;-61
2021/08/18 03:42:42;;;;;;;12.80;4.30;;;;;;;15.67;59.54;98939.22;263200;1092;115680;-64
2021/08/18 03:47:46;;;;;;;11.73;4.37;;;;;;;15.63;59.46;98938.59;263188;1092;115194;-65
2021/08/18 03:52:50;;;;;;;9.73;4.80;;;;;;;15.64;59.30;98934.08;263116;1093;115157;-64
2021/08/18 03:57:54;;;;;;;9.18;4.23;;;;;;;15.57;59.52;98945.32;263114;1092;114524;-65
2021/08/18 04:02:58;;;;;;;9.93;3.98;;;;;;;15.50;59.58;98933.41;263293;1093;115640;-64
2021/08/18 04:08:02;;;;;;;10.10;3.83;;;;;;;15.48;59.38;98927.31;263091;1092;115023;-62
2021/08/18 04:13:05;;;;;;;9.60;4.23;;;;;;;15.58;59.80;98943.48;263119;1092;115253;-62
2021/08/18 04:18:11;;;;;;;10.60;3.90;;;;;;;15.65;59.85;98930.41;263131;1093;115430;-64
2021/08/18 04:23:14;;;;;;;6.20;3.47;;;;;;;15.69;59.42;98940.80;263224;1092;115294;-67
2021/08/18 04:28:18;;;;;;;6.93;3.50;;;;;;;15.73;59.37;98938.70;263219;1092;115283;-62
2021/08/18 04:33:22;;;;;;;9.63;3.40;;;;;;;15.77;59.69;98949.04;263144;1092;115060;-62
2021/08/18 04:38:25;;;;;;;6.33;3.20;;;;;;;15.77;59.41;98953.56;263244;1092;115377;-63
2021/08/18 04:43:29;;;;;;;7.03;3.13;;;;;;;15.75;58.93;98942.94;263229;1092;115375;-61
2021/08/18 04:48:32;;;;;;;5.30;3.33;;;;;;;15.78;59.64;98937.31;263204;1093;116761;-63
2021/08/18 04:53:36;;;;;;;7.93;3.70;;;;;;;15.83;59.33;98945.84;263180;1092;115646;-62
2021/08/18 04:58:39;;;;;;;6.53;3.30;;;;;;;15.83;59.79;98948.52;263176;1093;115340;-59
2021/08/18 05:03:43;;;;;;;5.73;3.40;;;;;;;15.83;58.99;98953.05;263364;1092;114935;-62
2021/08/18 05:08:46;;;;;;;7.37;3.07;;;;;;;15.82;58.75;98962.05;263248;1092;115182;-60
2021/08/18 05:13:50;;;;;;;6.23;3.37;;;;;;;15.84;58.76;98965.47;263154;1092;114796;-59
2021/08/18 05:18:53;;;;;;;13.80;3.67;;;;;;;15.88;59.27;98969.59;263265;1092;115346;-62
2021/08/18 05:23:57;;;;;;;23.10;16.17;;;;;;;15.96;59.28;98959.03;263083;1092;115076;-57
2021/08/18 05:29:01;;;;;;;43.85;30.58;;;;;;;16.05;59.04;98962.78;263191;1092;115456;-66
2021/08/18 05:34:04;;;;;;;8.55;3.83;;;;;;;16.14;58.54;98971.89;263217;1093;115681;-61
2021/08/18 05:39:08;;;;;;;6.10;3.40;;;;;;;16.16;58.69;98967.22;262911;1093;115208;-67
2021/08/18 05:44:11;;;;;;;11.70;3.50;;;;;;;16.18;58.19;98963.43;263301;1093;115064;-62
2021/08/18 05:49:20;;;;;;;9.80;3.90;;;;;;;16.21;58.26;98971.22;263146;1093;114840;-60
2021/08/18 05:54:24;;;;;;;44.40;33.27;;;;;;;16.28;58.41;98968.86;263282;1092;115271;-60
2021/08/18 05:59:27;;;;;;;7.87;4.53;;;;;;;16.39;58.57;98967.92;263021;1092;115820;-58
2021/08/18 06:04:31;;;;;;;8.37;4.17;;;;;;;16.42;57.77;98965.81;263179;1093;115056;-58
2021/08/18 06:09:34;;;;;;;5.97;3.70;;;;;;;16.43;57.91;98966.66;263152;1092;115616;-61
2021/08/18 06:14:38;;;;;;;8.27;3.70;;;;;;;16.44;57.53;98976.41;263237;1092;114890;-63
2021/08/18 06:19:42;;;;;;;8.17;3.80;;;;;;;16.45;58.05;98973.61;263168;1092;115214;-65
2021/08/18 06:24:50;;;;;;;9.03;3.73;;;;;;;16.49;57.96;98974.19;263225;1093;115372;-64
2021/08/18 06:29:54;;;;;;;6.40;3.80;;;;;;;16.51;57.93;98975.77;263147;1092;115182;-63
2021/08/18 06:34:57;;;;;;;54.67;34.00;;;;;;;16.59;58.03;98977.77;263202;1092;115037;-63
2021/08/18 06:40:13;;;;;;;11.47;4.53;;;;;;;16.61;57.90;98980.31;262890;1092;115742;-67
2021/08/18 06:45:17;;;;;;;6.90;3.93;;;;;;;16.60;57.90;98979.47;263116;1093;115341;-63
2021/08/18 06:50:22;;;;;;;8.43;3.98;;;;;;;16.62;57.95;98988.25;262928;1092;115418;-63
2021/08/18 06:55:25;;;;;;;145.10;95.00;;;;;;;16.67;57.93;98980.63;263152;1093;115271;-63
2021/08/18 07:00:29;;;;;;;11.43;6.07;;;;;;;16.77;57.77;98969.95;263160;1092;115526;-62
2021/08/18 07:05:34;;;;;;;23.43;14.35;;;;;;;16.86;57.86;98963.77;263103;1092;115280;-62
2021/08/18 07:10:37;;;;;;;;;;;;;;;16.96;57.88;98961.95;263195;1093;115485;-61
2021/08/18 07:15:41;;;;;;;10.87;4.43;;;;;;;16.98;57.36;98961.80;263182;1093;103212;-60
2021/08/18 07:20:45;;;;;;;8.68;4.80;;;;;;;16.97;57.47;98960.95;263028;1093;116743;-62
2021/08/18 07:25:49;;;;;;;9.55;4.95;;;;;;;16.97;57.12;98968.17;262836;1092;115547;-62
2021/08/18 07:30:52;;;;;;;9.83;5.27;;;;;;;16.95;57.21;98978.20;263017;1092;115004;-64
2021/08/18 07:35:56;;;;;;;8.60;5.40;;;;;;;16.93;56.89;98975.66;263302;1092;116024;-63
2021/08/18 07:40:59;;;;;;;10.03;5.40;;;;;;;16.92;56.91;98967.75;262798;1093;115231;-66
2021/08/18 07:46:03;;;;;;;9.83;5.67;;;;;;;16.91;57.50;98974.09;263254;1092;116157;-62
2021/08/18 07:51:07;;;;;;;12.23;6.67;;;;;;;16.94;57.50;98969.29;262783;1092;114652;-59
2021/08/18 07:56:11;;;;;;;10.15;5.83;;;;;;;17.08;57.52;98968.05;263145;1093;115027;-63
2021/08/18 08:01:15;;;;;;;11.20;6.07;;;;;;;17.22;57.53;98964.11;263247;1092;114860;-62
2021/08/18 08:06:19;;;;;;;11.60;5.88;;;;;;;17.33;57.43;98965.84;262917;1093;116211;-61
2021/08/18 08:11:22;;;;;;;13.23;7.07;;;;;;;17.50;57.22;98954.39;263025;1092;116663;-63
2021/08/18 08:16:26;;;;;;;10.58;6.28;;;;;;;17.51;57.34;98950.70;262144;1092;114909;-61
2021/08/18 08:21:29;;;;;;;23.30;15.10;;;;;;;17.63;57.22;98952.27;262964;1093;115114;-64
2021/08/18 08:26:33;;;;;;;12.57;6.53;;;;;;;17.61;57.07;98948.02;262809;1092;115340;-62
2021/08/18 08:31:38;;;;;;;9.97;6.00;;;;;;;17.56;57.26;98934.12;263190;1093;115500;-61
2021/08/18 08:36:41;;;;;;;13.73;6.53;;;;;;;17.52;57.27;98941.63;263104;1092;114910;-61
2021/08/18 08:41:49;;;;;;;12.53;6.70;;;;;;;17.46;57.04;98937.68;263234;1092;116181;-61
2021/08/18 08:46:53;;;;;;;;;;;;;;;17.44;56.88;98942.34;263283;1092;115696;-65
2021/08/18 08:51:57;;;;;;;11.40;7.18;;;;;;;17.42;57.04;98938.08;263224;1092;101288;-63
2021/08/18 08:57:01;;;;;;;15.08;6.45;;;;;;;17.43;57.39;98920.97;263219;1093;116004;-65
2021/08/18 09:02:06;;;;;;;12.17;6.93;;;;;;;17.43;57.12;98921.81;262687;1092;115408;-59
2021/08/18 09:07:16;;;;;;;12.90;6.95;;;;;;;17.49;57.48;98918.56;263092;1093;115462;-61
2021/08/18 09:12:27;;;;;;;14.93;9.43;;;;;;;17.57;57.11;98920.54;263152;1093;115651;-61
2021/08/18 09:17:37;;;;;;;13.40;7.20;;;;;;;17.61;56.90;98910.34;263059;1093;115323;-62
2021/08/18 09:22:45;;;;;;;16.80;6.90;;;;;;;17.72;56.95;98905.63;263199;1092;115324;-65
2021/08/18 09:27:54;;;;;;;57.77;37.63;;;;;;;17.90;57.30;98913.00;263123;1092;115265;-64
2021/08/18 09:33:19;;;;;;;12.75;7.20;;;;;;;18.11;56.95;98916.38;263337;1093;115634;-62
2021/08/18 09:38:25;;;;;;;12.10;7.18;;;;;;;18.16;56.11;98913.23;263085;1092;115427;-60
2021/08/18 09:43:31;;;;;;;15.13;7.53;;;;;;;18.20;56.35;98911.94;263196;1092;115188;-59
2021/08/18 09:48:37;;;;;;;86.03;65.50;;;;;;;18.25;55.84;98912.36;262937;1093;115084;-61
2021/08/18 09:53:43;;;;;;;13.70;8.67;;;;;;;18.37;55.85;98908.47;262683;1092;115282;-61
2021/08/18 09:58:57;;;;;;;16.27;8.43;;;;;;;18.57;55.77;98893.06;263091;1092;115596;-63
2021/08/18 10:04:01;;;;;;;27.43;14.50;;;;;;;18.89;56.00;98898.05;263129;1092;114943;-61
2021/08/18 10:09:05;;;;;;;19.43;7.28;;;;;;;19.16;55.83;98893.61;263104;1093;115420;-61
2021/08/18 10:14:09;;;;;;;11.87;7.60;;;;;;;19.41;55.66;98896.53;263185;1093;115360;-62
2021/08/18 10:19:13;;;;;;;;;;;;;;;19.57;55.04;98893.98;262960;1093;115794;-60
2021/08/18 10:24:32;;;;;;;10.73;6.90;;;;;;;19.70;54.58;98885.48;263267;1092;102287;-60
2021/08/18 10:29:38;;;;;;;11.15;7.25;;;;;;;19.96;55.21;98880.95;262827;1092;115198;-61
2021/08/18 10:34:45;;;;;;;10.90;6.77;;;;;;;20.01;53.68;98889.45;263212;1092;115371;-61
2021/08/18 10:39:51;;;;;;;16.07;7.10;;;;;;;19.95;52.88;98875.72;262246;1092;115872;-61
2021/08/18 10:44:55;;;;;;;15.90;7.50;;;;;;;19.88;52.74;98891.72;263197;1093;115893;-63
2021/08/18 10:49:58;;;;;;;12.67;7.10;;;;;;;19.72;52.77;98884.33;262967;1092;115646;-63
2021/08/18 10:55:14;;;;;;;14.07;8.60;;;;;;;19.70;53.12;98886.36;262938;1093;115169;-61
2021/08/18 11:00:26;;;;;;;11.43;6.83;;;;;;;19.78;53.41;98877.47;262807;1092;116161;-58
2021/08/18 11:05:39;;;;;;;14.67;7.83;;;;;;;19.91;52.98;98886.00;263144;1093;115276;-59
2021/08/18 11:10:53;;;;;;;38.00;27.20;;;;;;;20.09;53.14;98867.03;262709;1092;115367;-59
2021/08/18 11:15:57;;;;;;;10.90;6.90;;;;;;;20.22;52.93;98858.49;262845;1092;115715;-61
2021/08/18 11:21:02;;;;;;;13.97;7.97;;;;;;;20.40;52.77;98870.05;263476;1092;115496;-59
2021/08/18 11:26:07;;;;;;;11.53;6.88;;;;;;;20.54;51.94;98857.81;263007;1093;115372;-59
2021/08/18 11:31:11;;;;;;;12.03;8.15;;;;;;;20.69;51.52;98863.45;262648;1093;115199;-59
2021/08/18 11:36:17;;;;;;;21.83;14.75;;;;;;;20.83;51.42;98860.11;263088;1093;115594;-57
2021/08/18 11:41:35;;;;;;;14.20;7.27;;;;;;;21.06;51.08;98867.59;262857;1092;115524;-58
2021/08/18 11:46:38;;;;;;;42.97;29.67;;;;;;;21.21;50.84;98855.11;262647;1092;115409;-61
2021/08/18 11:51:48;;;;;;;11.38;7.20;;;;;;;21.43;50.30;98859.91;263288;1092;115371;-60
2021/08/18 11:57:06;;;;;;;8.50;6.13;;;;;;;21.60;49.99;98854.46;262493;1092;115441;-61
2021/08/18 12:02:10;;;;;;;10.53;6.30;;;;;;;21.68;49.46;98849.06;263082;1092;116014;-60
2021/08/18 12:07:17;;;;;;;8.43;5.73;;;;;;;21.63;49.29;98854.13;262671;1092;116689;-60
2021/08/18 12:12:24;;;;;;;8.70;5.53;;;;;;;21.69;49.23;98838.04;263156;1092;115079;-62
2021/08/18 12:17:37;;;;;;;7.40;5.40;;;;;;;21.87;48.95;98839.70;263116;1093;114939;-61
2021/08/18 12:22:42;;;;;;;11.83;6.10;;;;;;;22.08;48.54;98840.02;262657;1092;114799;-59
2021/08/18 12:27:46;;;;;;;11.97;6.03;;;;;;;22.17;48.50;98835.42;263143;1092;115259;-61
2021/08/18 12:32:50;;;;;;;7.80;5.20;;;;;;;22.37;48.15;98842.14;263187;1092;115622;-61
2021/08/18 12:37:54;;;;;;;8.13;4.80;;;;;;;22.49;47.26;98841.77;263165;1092;114933;-61
2021/08/18 12:43:01;;;;;;;10.30;5.45;;;;;;;22.51;46.86;98831.58;262666;1093;115385;-61
2021/08/18 12:48:04;;;;;;;8.40;4.53;;;;;;;22.55;47.10;98822.05;263261;1092;115369;-60
2021/08/18 12:53:09;;;;;;;7.58;4.88;;;;;;;22.73;46.51;98835.38;262902;1093;115776;-62
2021/08/18 12:58:17;;;;;;;5.97;4.27;;;;;;;22.76;45.98;98825.02;263171;1092;115038;-61
2021/08/18 13:03:20;;;;;;;9.07;5.13;;;;;;;22.88;46.46;98822.72;263144;1092;115326;-60
2021/08/18 13:08:24;;;;;;;7.60;4.43;;;;;;;22.86;45.73;98813.91;263157;1093;115567;-63
2021/08/18 13:13:28;;;;;;;7.58;5.10;;;;;;;22.86;45.81;98800.34;262351;1091;114690;-62
2021/08/18 13:18:31;;;;;;;6.23;3.98;;;;;;;23.05;44.95;98808.05;263267;1093;114711;-60
2021/08/18 13:23:35;;;;;;;7.43;3.70;;;;;;;23.17;43.92;98802.22;262793;1092;115624;-60
2021/08/18 13:28:40;;;;;;;5.20;3.45;;;;;;;23.19;43.79;98814.56;263185;1092;115509;-59
2021/08/18 13:33:43;;;;;;;47.60;35.47;;;;;;;23.31;43.94;98804.13;262796;1092;114815;-58
2021/08/18 13:38:47;;;;;;;5.55;3.80;;;;;;;23.50;43.46;98819.91;262934;1092;115993;-59
2021/08/18 13:43:51;;;;;;;7.00;4.03;;;;;;;23.65;43.69;98809.09;263138;1092;115259;-61
2021/08/18 13:48:55;;;;;;;69.08;41.08;;;;;;;23.72;43.39;98793.77;263171;1093;115605;-61
2021/08/18 13:53:59;;;;;;;9.00;4.73;;;;;;;23.68;43.36;98791.61;263076;1093;115904;-61
2021/08/18 13:59:08;;;;;;;5.33;3.60;;;;;;;23.72;43.14;98793.77;263135;1092;115300;-59
2021/08/18 14:04:12;;;;;;;4.90;3.63;;;;;;;23.67;42.91;98798.86;263085;1092;115209;-60
2021/08/18 14:09:15;;;;;;;5.88;3.28;;;;;;;23.79;42.40;98800.14;263148;1093;115840;-58
2021/08/18 14:14:19;;;;;;;9.93;3.60;;;;;;;23.96;42.13;98811.69;263120;1093;115047;-62
2021/08/18 14:19:23;;;;;;;5.73;3.40;;;;;;;24.05;42.02;98796.98;263239;1093;115320;-63
2021/08/18 14:24:27;;;;;;;5.45;3.50;;;;;;;24.17;41.87;98789.17;263110;1093;115477;-61
2021/08/18 14:29:31;;;;;;;6.18;3.53;;;;;;;24.13;41.85;98793.31;263128;1093;115625;-60
2021/08/18 14:34:34;;;;;;;6.85;3.68;;;;;;;24.04;42.18;98802.59;263101;1093;115080;-60
2021/08/18 14:39:38;;;;;;;9.30;3.43;;;;;;;23.80;41.68;98803.70;263188;1091;115385;-62
2021/08/18 14:44:41;;;;;;;6.93;4.10;;;;;;;23.50;41.75;98802.77;263228;1093;115500;-60
2021/08/18 14:49:45;;;;;;;5.65;3.73;;;;;;;23.18;41.66;98790.32;263117;1092;114939;-62
2021/08/18 14:54:49;;;;;;;5.20;3.33;;;;;;;22.83;41.40;98796.14;263124;1092;115342;-61
2021/08/18 14:59:52;;;;;;;34.33;25.68;;;;;;;22.57;41.39;98801.03;263293;1093;115447;-62
2021/08/18 15:04:57;;;;;;;5.00;3.85;;;;;;;22.36;41.82;98805.20;263109;1092;115619;-64
2021/08/18 15:10:02;;;;;;;8.03;4.30;;;;;;;22.19;42.07;98796.29;262867;1092;115164;-63
2021/08/18 15:15:09;;;;;;;8.13;3.60;;;;;;;21.96;42.05;98798.87;262784;1092;115313;-63
2021/08/18 15:20:13;;;;;;;7.20;4.10;;;;;;;21.81;42.16;98791.65;262663;1092;115687;-62
2021/08/18 15:25:16;;;;;;;5.70;3.17;;;;;;;21.71;42.24;98808.92;263127;1093;114988;-62
2021/08/18 15:30:30;;;;;;;5.97;3.47;;;;;;;21.65;42.32;98798.78;263245;1092;115395;-61
2021/08/18 15:35:33;;;;;;;6.03;3.70;;;;;;;21.57;42.44;98800.63;263093;1092;115319;-62
2021/08/18 15:40:37;;;;;;;6.53;3.75;;;;;;;21.49;42.53;98804.20;262816;1093;115439;-62
2021/08/18 15:45:40;;;;;;;30.85;23.23;;;;;;;21.43;42.79;98794.92;262867;1093;115636;-63
2021/08/18 15:50:44;;;;;;;5.27;3.40;;;;;;;21.40;42.66;98791.68;263286;1092;116356;-62
2021/08/18 15:55:48;;;;;;;31.25;22.10;;;;;;;21.33;42.81;98783.39;263038;1093;115148;-62
2021/08/18 16:00:52;;;;;;;19.80;15.63;;;;;;;21.30;42.91;98780.15;263091;1092;115653;-62
2021/08/18 16:05:55;;;;;;;5.48;3.73;;;;;;;21.24;42.70;98789.81;262608;1092;115148;-63
2021/08/18 16:10:59;;;;;;;4.50;3.35;;;;;;;21.18;43.25;98796.73;263172;1092;114846;-61
2021/08/18 16:16:05;;;;;;;14.98;10.33;;;;;;;21.16;43.54;98784.38;263113;1092;115432;-63
2021/08/18 16:21:09;;;;;;;5.17;3.77;;;;;;;21.09;43.42;98791.48;263234;1093;115577;-60
2021/08/18 16:26:12;;;;;;;7.30;3.30;;;;;;;21.03;43.48;98785.75;263150;1092;115538;-62
2021/08/18 16:31:16;;;;;;;8.00;3.83;;;;;;;20.98;43.61;98793.51;262672;1093;115542;-62
2021/08/18 16:36:20;;;;;;;6.67;3.60;;;;;;;20.94;43.61;98791.31;263071;1093;115403;-61
2021/08/18 16:41:24;;;;;;;9.37;3.63;;;;;;;20.89;43.71;98790.95;262617;1093;114808;-61
2021/08/18 16:46:29;;;;;;;6.50;3.85;;;;;;;20.83;43.80;98800.61;263104;1092;115556;-62
2021/08/18 16:51:33;;;;;;;21.50;16.45;;;;;;;20.76;43.85;98786.05;263055;1092;115469;-62
2021/08/18 16:56:36;;;;;;;21.83;17.58;;;;;;;20.72;44.07;98787.38;263175;1092;117056;-61
2021/08/18 17:01:40;;;;;;;7.57;3.87;;;;;;;20.68;43.99;98788.73;263072;1093;115017;-62
2021/08/18 17:06:44;;;;;;;9.40;4.40;;;;;;;20.63;44.09;98785.69;263193;1092;115403;-62
2021/08/18 17:11:48;;;;;;;6.00;4.20;;;;;;;20.60;44.44;98797.67;263106;1093;115490;-60
2021/08/18 17:16:51;;;;;;;21.63;14.03;;;;;;;20.59;44.79;98800.56;263106;1093;115372;-60
2021/08/18 17:21:55;;;;;;;8.08;4.03;;;;;;;20.51;44.79;98804.06;263189;1093;115491;-59
2021/08/18 17:26:58;;;;;;;8.20;4.33;;;;;;;20.44;44.78;98803.84;262994;1092;115436;-62
2021/08/18 17:32:02;;;;;;;6.78;3.43;;;;;;;20.38;44.87;98804.52;262658;1092;115446;-62
2021/08/18 17:37:06;;;;;;;6.65;4.05;;;;;;;20.30;45.19;98809.88;262862;1092;114762;-63
2021/08/18 17:42:10;;;;;;;41.90;30.43;;;;;;;20.22;45.32;98816.09;262906;1092;115106;-60
2021/08/18 17:47:13;;;;;;;5.93;4.23;;;;;;;20.08;45.31;98811.30;263105;1093;115461;-63
2021/08/18 17:52:17;;;;;;;6.88;3.83;;;;;;;19.98;45.47;98824.92;262269;1092;114952;-60
2021/08/18 17:57:21;;;;;;;10.07;4.40;;;;;;;19.89;45.52;98831.28;263242;1092;115178;-63
2021/08/18 18:02:24;;;;;;;26.43;19.45;;;;;;;19.81;45.90;98831.24;262586;1092;115159;-65
2021/08/18 18:07:28;;;;;;;5.93;4.13;;;;;;;19.78;45.98;98842.36;262574;1093;115609;-64
2021/08/18 18:12:32;;;;;;;8.10;4.60;;;;;;;19.73;45.99;98842.81;263118;1092;115446;-66
2021/08/18 18:17:36;;;;;;;6.70;4.20;;;;;;;19.68;45.87;98838.91;263120;1093;114589;-64
2021/08/18 18:22:40;;;;;;;8.23;4.17;;;;;;;19.62;46.20;98843.05;263225;1093;114931;-63
2021/08/18 18:27:44;;;;;;;161.73;106.45;;;;;;;19.58;46.24;98837.12;263170;1092;115429;-61
2021/08/18 18:32:48;;;;;;;11.13;6.60;;;;;;;19.55;46.30;98850.92;263261;1092;116082;-61
2021/08/18 18:37:54;;;;;;;7.70;4.48;;;;;;;19.52;46.42;98855.79;263131;1093;115226;-60
2021/08/18 18:42:59;;;;;;;12.03;7.23;;;;;;;19.46;46.88;98851.86;263143;1093;115193;-64
2021/08/18 18:48:03;;;;;;;7.00;4.40;;;;;;;19.40;46.72;98847.11;263192;1093;115022;-60
2021/08/18 18:53:07;;;;;;;7.78;3.90;;;;;;;19.35;46.66;98846.71;263119;1092;115283;-60
2021/08/18 18:58:11;;;;;;;8.13;4.30;;;;;;;19.27;46.91;98844.80;262687;1092;116577;-65
2021/08/18 19:03:18;;;;;;;8.95;3.95;;;;;;;19.23;47.33;98848.81;263320;1092;115329;-61
2021/08/18 19:08:22;;;;;;;64.77;44.73;;;;;;;19.19;47.29;98849.26;263198;1092;115349;-66
2021/08/18 19:13:26;;;;;;;10.43;7.13;;;;;;;19.19;47.32;98849.26;263140;1092;115842;-61
2021/08/18 19:18:29;;;;;;;7.95;5.10;;;;;;;19.14;47.59;98852.44;263085;1093;115386;-65
2021/08/18 19:23:36;;;;;;;8.00;4.70;;;;;;;19.09;47.47;98852.06;263086;1092;115060;-61
2021/08/18 19:28:39;;;;;;;7.80;4.23;;;;;;;19.01;47.80;98847.41;262819;1093;114932;-62
2021/08/18 19:33:43;;;;;;;7.98;4.48;;;;;;;18.94;48.04;98851.73;263145;1092;115308;-67
2021/08/18 19:38:47;;;;;;;9.68;4.55;;;;;;;18.89;48.21;98848.66;262988;1092;114743;-63
2021/08/18 19:43:51;;;;;;;11.33;5.10;;;;;;;18.79;48.20;98850.57;263223;1093;115867;-62
2021/08/18 19:48:55;;;;;;;11.63;5.20;;;;;;;18.71;48.03;98853.13;263043;1093;115266;-64
2021/08/18 19:53:58;;;;;;;10.97;5.87;;;;;;;18.65;48.34;98858.14;263171;1092;115314;-59
2021/08/18 19:59:02;;;;;;;9.17;5.07;;;;;;;18.58;49.14;98872.34;263138;1093;115228;-65
2021/08/18 20:04:06;;;;;;;8.97;4.80;;;;;;;18.51;49.05;98863.16;263324;1092;115372;-63
2021/08/18 20:09:09;;;;;;;8.05;5.18;;;;;;;18.45;49.02;98864.63;263242;1093;115073;-64
2021/08/18 20:14:13;;;;;;;8.33;5.23;;;;;;;18.38;49.24;98867.08;262687;1092;115121;-62
2021/08/18 20:19:17;;;;;;;11.90;5.43;;;;;;;18.35;49.46;98853.05;263036;1092;115191;-67
2021/08/18 20:24:20;;;;;;;11.58;5.33;;;;;;;18.28;49.27;98846.56;263160;1093;115713;-67
2021/08/18 20:29:24;;;;;;;8.07;5.30;;;;;;;18.19;49.52;98850.98;262966;1093;115055;-64
2021/08/18 20:34:30;;;;;;;8.45;5.40;;;;;;;18.11;49.82;98849.05;263218;1093;115701;-65
2021/08/18 20:39:34;;;;;;;12.20;5.60;;;;;;;18.06;50.02;98848.62;263163;1092;115087;-62
2021/08/18 20:44:38;;;;;;;8.15;5.40;;;;;;;18.03;49.97;98848.06;263132;1093;115281;-62
2021/08/18 20:49:41;;;;;;;9.60;4.58;;;;;;;17.98;50.08;98858.45;263137;1093;114535;-66
2021/08/18 20:54:45;;;;;;;7.73;4.70;;;;;;;17.93;50.07;98861.55;263224;1093;115296;-64
2021/08/18 20:59:49;;;;;;;12.80;5.80;;;;;;;17.88;50.14;98858.47;262756;1093;115275;-65
2021/08/18 21:04:55;;;;;;;9.43;5.43;;;;;;;17.83;50.55;98855.35;262558;1092;115723;-63
2021/08/18 21:09:59;;;;;;;10.77;5.67;;;;;;;17.76;50.61;98846.13;263021;1092;114911;-67
2021/08/18 21:15:03;;;;;;;7.97;4.73;;;;;;;17.68;50.66;98842.33;263431;1093;114704;-64
2021/08/18 21:20:08;;;;;;;13.90;5.25;;;;;;;17.59;51.03;98839.65;262776;1092;115110;-63
2021/08/18 21:25:12;;;;;;;9.40;5.28;;;;;;;17.56;51.28;98838.13;263054;1093;115303;-64
2021/08/18 21:30:16;;;;;;;8.55;4.78;;;;;;;17.50;51.25;98838.69;263155;1091;115239;-61
2021/08/18 21:35:19;;;;;;;9.20;5.23;;;;;;;17.44;51.49;98833.88;262876;1092;115064;-61
2021/08/18 21:40:23;;;;;;;9.20;5.17;;;;;;;17.42;51.66;98843.92;262729;1093;115050;-62
2021/08/18 21:45:27;;;;;;;13.27;5.70;;;;;;;17.34;51.56;98843.80;263348;1093;114789;-63
2021/08/18 21:50:30;;;;;;;7.30;4.97;;;;;;;17.27;52.18;98840.83;263122;1092;115284;-63
2021/08/18 21:55:34;;;;;;;10.63;5.30;;;;;;;17.20;51.89;98845.93;263136;1092;114985;-63
2021/08/18 22:00:38;;;;;;;10.95;5.28;;;;;;;17.14;52.00;98849.18;263195;1092;114950;-61
2021/08/18 22:05:44;;;;;;;10.43;5.40;;;;;;;17.08;52.23;98848.89;261737;1092;115596;-63
2021/08/18 22:10:57;;;;;;;9.95;5.30;;;;;;;17.02;52.49;98845.80;261570;1092;115802;-61
2021/08/18 22:16:01;;;;;;;7.13;4.47;;;;;;;17.02;52.80;98850.33;263276;1092;115671;-61
2021/08/18 22:21:04;;;;;;;12.73;5.60;;;;;;;17.01;53.04;98848.60;262522;1092;115517;-60
2021/08/18 22:26:08;;;;;;;12.63;6.00;;;;;;;16.99;52.70;98850.60;263222;1093;115124;-67
2021/08/18 22:31:32;;;;;;;10.13;4.97;;;;;;;16.92;52.94;98842.25;263081;1092;115033;-62
2021/08/18 22:36:35;;;;;;;13.10;5.27;;;;;;;16.88;52.97;98831.89;263367;1092;115728;-60
2021/08/18 22:41:39;;;;;;;10.10;5.05;;;;;;;16.84;53.31;98834.02;263199;1093;116243;-66
2021/08/18 22:46:43;;;;;;;11.03;5.20;;;;;;;16.85;53.13;98821.42;263180;1092;115396;-67
2021/08/18 22:51:47;;;;;;;10.75;5.18;;;;;;;16.87;53.50;98817.61;263142;1092;116037;-64
2021/08/18 22:56:50;;;;;;;10.33;5.43;;;;;;;16.86;53.21;98825.83;263357;1093;115149;-62
2021/08/18 23:01:54;;;;;;;9.03;4.77;;;;;;;16.77;53.93;98825.66;263217;1093;115369;-63
2021/08/18 23:06:58;;;;;;;10.30;5.23;;;;;;;16.70;53.76;98819.12;262956;1092;115438;-59
2021/08/18 23:12:02;;;;;;;;;;;;;;;16.66;53.94;98817.70;262980;1092;115284;-59
2021/08/18 23:17:06;;;;;;;11.03;5.10;;;;;;;16.61;54.08;98819.09;263219;1092;104121;-60